Forside
METAR-TAF:

METAR-TAF

Lufthavne :

Esbjerg Lufthavn

Esbjerg, Danmark

Breddekreds: 55-32N, længdekreds: 008-34E, højde: 30 m

Aktuelle vejr

Denne rapport blev lavet for 17 minutter siden, kl. 01:20 UTC
Vind 9 kt fra vestnordvest
Temperatur 12°C
Fugtighed 88%
Tryk 1012 hPa
Sigt 10 km eller mere

METAR: EKEB 220120Z AUTO 30009KT 9999 BKN019/// BKN100/// 12/10 Q1012

Tid: 03:37 (01:37 UTC)

Vejrudsigter

Denne rapport blev lavet for 11 timer og 8 minutter siden, kl. 14:29 UTC
Foreløbig gælder fra 21 på 15 UTC til 21 på 21 UTC
Vind 8 kt fra nordnordvest
Sigt 10 km eller mere
Spredte skyer i en højde af 2000 ft

TAF: EKEB 211429Z 2115/2121 34008KT 9999 SCT020

Vejrobservationer og prognoser fra mere end 4000 lufthavne (METAR og TAF).

De gule og røde prikker repræsenterer de meteorologiske stationer.

Flyt musen over at se navnet på stationen.

Så klik over at se vejr observationer og prognoser.

At skifte det kort: Klik på de grønne knapper med et sort kors for at zoome ind; på den grønne knap med en bindestreg for at zoome ud; eller på de grønne pile for tilstødende kort.


METAR-TAF: